createdAt,value
2018-09-11T00:00:43.029Z,0
2018-09-11T00:01:52.693Z,0
2018-09-11T00:03:01.601Z,0
2018-09-11T00:04:10.754Z,0
2018-09-11T00:05:20.209Z,0
2018-09-11T00:06:30.151Z,0
2018-09-11T00:07:39.318Z,0
2018-09-11T00:08:48.744Z,0
2018-09-11T00:09:57.726Z,0
2018-09-11T00:11:07.414Z,0
2018-09-11T00:12:16.606Z,0
2018-09-11T00:13:25.767Z,0
2018-09-11T00:14:35.189Z,0
2018-09-11T00:15:44.349Z,0
2018-09-11T00:16:53.261Z,0
2018-09-11T00:18:02.945Z,0
2018-09-11T00:19:12.129Z,0
2018-09-11T00:20:21.313Z,0
2018-09-11T00:21:30.472Z,0
2018-09-11T00:22:40.165Z,0
2018-09-11T00:23:49.073Z,0
2018-09-11T00:24:58.043Z,0
2018-09-11T00:26:07.483Z,0
2018-09-11T00:27:16.913Z,0
2018-09-11T00:28:26.093Z,0
2018-09-11T00:29:35.272Z,0
2018-09-11T00:30:45.213Z,0
2018-09-11T00:31:55.149Z,0
2018-09-11T00:33:04.659Z,0
2018-09-11T00:34:13.573Z,0
2018-09-11T00:35:22.724Z,0
2018-09-11T00:36:32.404Z,0
2018-09-11T00:37:41.823Z,0
2018-09-11T00:38:51.500Z,0
2018-09-11T00:40:01.173Z,0
2018-09-11T00:41:10.869Z,0
2018-09-11T00:42:19.839Z,0
2018-09-11T00:43:29.408Z,0
2018-09-11T00:44:39.102Z,0
2018-09-11T00:45:48.271Z,0
2018-09-11T00:46:58.209Z,0
2018-09-11T00:48:07.877Z,0
2018-09-11T00:49:17.041Z,0
2018-09-11T00:50:26.734Z,0
2018-09-11T00:51:35.895Z,0
2018-09-11T00:52:45.309Z,0
2018-09-11T00:53:54.738Z,0
2018-09-11T00:55:04.162Z,0
2018-09-11T00:56:13.606Z,0
2018-09-11T00:57:23.030Z,0
2018-09-11T00:58:31.948Z,0
2018-09-11T00:59:41.626Z,0
2018-09-11T01:00:50.544Z,0
2018-09-11T01:01:59.703Z,0
2018-09-11T01:03:09.113Z,0
2018-09-11T01:04:18.539Z,0
2018-09-11T01:05:27.717Z,0
2018-09-11T01:06:37.412Z,0
2018-09-11T01:07:46.576Z,0
2018-09-11T01:08:55.770Z,0
2018-09-11T01:10:05.312Z,0
2018-09-11T01:11:14.618Z,0
2018-09-11T01:12:23.794Z,0
2018-09-11T01:13:33.247Z,0
2018-09-11T01:14:42.171Z,0
2018-09-11T01:15:51.584Z,0
2018-09-11T01:17:00.767Z,0
2018-09-11T01:18:10.179Z,0
2018-09-11T01:19:19.093Z,0
2018-09-11T01:20:28.510Z,0
2018-09-11T01:21:37.644Z,0
2018-09-11T01:22:47.308Z,0
2018-09-11T01:23:56.742Z,0
2018-09-11T01:25:05.908Z,0
2018-09-11T01:26:14.831Z,0
2018-09-11T01:27:24.080Z,0
2018-09-11T01:28:33.515Z,0
2018-09-11T01:29:43.186Z,0
2018-09-11T01:30:52.882Z,0
2018-09-11T01:32:02.563Z,0
2018-09-11T01:33:12.265Z,0
2018-09-11T01:34:21.167Z,0
2018-09-11T01:35:30.322Z,0
2018-09-11T01:36:39.238Z,0
2018-09-11T01:37:48.922Z,0
2018-09-11T01:38:58.087Z,0
2018-09-11T01:40:07.523Z,0
2018-09-11T01:41:16.446Z,0
2018-09-11T01:42:25.861Z,0
2018-09-11T01:43:35.020Z,0
2018-09-11T01:44:44.725Z,0
2018-09-11T01:45:54.129Z,0
2018-09-11T01:47:03.835Z,0
2018-09-11T01:48:13.532Z,0
2018-09-11T01:49:22.685Z,0
2018-09-11T01:50:32.386Z,0
2018-09-11T01:51:41.559Z,0
2018-09-11T01:52:50.991Z,0
2018-09-11T01:54:00.158Z,0
2018-09-11T01:55:09.324Z,0
2018-09-11T01:56:19.034Z,0
2018-09-11T01:57:28.477Z,0
2018-09-11T01:58:37.910Z,0
2018-09-11T01:59:47.081Z,0
2018-09-11T02:00:56.769Z,0
2018-09-11T02:02:06.719Z,0
2018-09-11T02:03:15.385Z,0
2018-09-11T02:04:24.812Z,0
2018-09-11T02:05:34.236Z,0
2018-09-11T02:06:43.435Z,0
2018-09-11T02:07:53.130Z,0
2018-09-11T02:09:02.285Z,0
2018-09-11T02:10:11.706Z,0
2018-09-11T02:11:20.605Z,0
2018-09-11T02:12:29.841Z,0
2018-09-11T02:13:39.272Z,0
2018-09-11T02:14:48.492Z,0
2018-09-11T02:15:57.406Z,0
2018-09-11T02:17:06.578Z,0
2018-09-11T02:18:16.255Z,0
2018-09-11T02:19:25.669Z,0
2018-09-11T02:20:34.840Z,0
2018-09-11T02:21:44.015Z,0
2018-09-11T02:22:53.438Z,0
2018-09-11T02:24:02.612Z,0
2018-09-11T02:25:12.036Z,0
2018-09-11T02:26:20.967Z,0
2018-09-11T02:27:30.135Z,0
2018-09-11T02:28:39.363Z,0
2018-09-11T02:29:48.792Z,0
2018-09-11T02:30:57.703Z,0
2018-09-11T02:32:07.479Z,0
2018-09-11T02:33:17.462Z,0
2018-09-11T02:34:26.650Z,0
2018-09-11T02:35:35.967Z,0
2018-09-11T02:36:45.479Z,0
2018-09-11T02:37:54.386Z,0
2018-09-11T02:39:03.849Z,0
2018-09-11T02:40:13.543Z,0
2018-09-11T02:41:22.971Z,0
2018-09-11T02:42:32.660Z,0
2018-09-11T02:43:42.358Z,0
2018-09-11T02:44:52.049Z,0
2018-09-11T02:46:01.850Z,0
2018-09-11T02:47:11.325Z,0
2018-09-11T02:48:21.010Z,0
2018-09-11T02:49:30.178Z,0
2018-09-11T02:50:39.921Z,0
2018-09-11T02:51:49.590Z,0
2018-09-11T02:52:59.032Z,0
2018-09-11T02:54:08.732Z,0
2018-09-11T02:55:18.414Z,0
2018-09-11T02:56:27.334Z,0
2018-09-11T02:57:36.527Z,0
2018-09-11T02:58:46.227Z,0
2018-09-11T02:59:55.910Z,0
2018-09-11T03:01:05.680Z,0
2018-09-11T03:02:15.145Z,0
2018-09-11T03:03:24.586Z,0
2018-09-11T03:04:34.014Z,0
2018-09-11T03:05:43.176Z,0
2018-09-11T03:06:52.189Z,0
2018-09-11T03:08:01.881Z,0
2018-09-11T03:09:11.331Z,0
2018-09-11T03:10:21.042Z,0
2018-09-11T03:11:30.267Z,0
2018-09-11T03:12:39.433Z,0
2018-09-11T03:13:49.102Z,0
2018-09-11T03:14:58.799Z,0
2018-09-11T03:16:08.263Z,0
2018-09-11T03:17:18.022Z,0
2018-09-11T03:18:27.693Z,0
2018-09-11T03:19:37.447Z,0
2018-09-11T03:20:46.628Z,0
2018-09-11T03:21:55.797Z,0
2018-09-11T03:23:05.223Z,0
2018-09-11T03:24:14.439Z,0
2018-09-11T03:25:23.910Z,0
2018-09-11T03:26:33.143Z,0
2018-09-11T03:27:42.853Z,0
2018-09-11T03:28:52.282Z,0
2018-09-11T03:30:01.729Z,0
2018-09-11T03:31:11.419Z,0
2018-09-11T03:32:20.855Z,0
2018-09-11T03:33:30.626Z,0
2018-09-11T03:34:39.827Z,0
2018-09-11T03:35:49.249Z,0
2018-09-11T03:36:58.412Z,0
2018-09-11T03:38:07.862Z,0
2018-09-11T03:39:17.085Z,0
2018-09-11T03:40:26.523Z,0
2018-09-11T03:41:36.211Z,0
2018-09-11T03:42:45.637Z,0
2018-09-11T03:43:54.841Z,0
2018-09-11T03:45:04.301Z,0
2018-09-11T03:46:13.232Z,0
2018-09-11T03:47:22.923Z,0
2018-09-11T03:48:31.839Z,0
2018-09-11T03:49:41.018Z,0
2018-09-11T03:50:50.753Z,0
2018-09-11T03:52:00.172Z,0
2018-09-11T03:53:09.634Z,0
2018-09-11T03:54:19.058Z,0
2018-09-11T03:55:28.733Z,0
2018-09-11T03:56:38.187Z,0
2018-09-11T03:57:47.988Z,0
2018-09-11T03:58:57.688Z,0
2018-09-11T04:00:07.139Z,0
2018-09-11T04:01:16.565Z,0
2018-09-11T04:02:25.991Z,0
2018-09-11T04:03:35.440Z,0
2018-09-11T04:04:44.373Z,0
2018-09-11T04:05:54.073Z,0
2018-09-11T04:07:03.546Z,0
2018-09-11T04:08:12.987Z,0
2018-09-11T04:09:22.414Z,0
2018-09-11T04:10:31.581Z,0
2018-09-11T04:11:40.757Z,0
2018-09-11T04:12:50.496Z,0
2018-09-11T04:14:00.187Z,0
2018-09-11T04:15:09.613Z,0
2018-09-11T04:16:19.039Z,0
2018-09-11T04:17:27.960Z,0
2018-09-11T04:18:37.127Z,0
2018-09-11T04:19:46.818Z,0
2018-09-11T04:20:56.036Z,0
2018-09-11T04:22:05.485Z,0
2018-09-11T04:23:14.894Z,0
2018-09-11T04:24:24.326Z,0
2018-09-11T04:25:34.318Z,0
2018-09-11T04:26:44.213Z,0
2018-09-11T04:27:53.124Z,0
2018-09-11T04:29:02.316Z,0
2018-09-11T04:30:12.014Z,0
2018-09-11T04:31:21.710Z,0
2018-09-11T04:32:31.398Z,0
2018-09-11T04:33:40.600Z,0
2018-09-11T04:34:50.011Z,0
2018-09-11T04:35:59.429Z,0
2018-09-11T04:37:09.130Z,0
2018-09-11T04:38:18.626Z,0
2018-09-11T04:39:27.823Z,0
2018-09-11T04:40:37.775Z,0
2018-09-11T04:41:47.454Z,0
2018-09-11T04:42:57.038Z,0
2018-09-11T04:44:06.782Z,0
2018-09-11T04:45:16.248Z,0
2018-09-11T04:46:26.230Z,0
2018-09-11T04:47:35.929Z,0
2018-09-11T04:48:45.888Z,0
2018-09-11T04:49:55.586Z,0
2018-09-11T04:51:05.336Z,0
2018-09-11T04:52:14.537Z,0
2018-09-11T04:53:23.949Z,0
2018-09-11T04:54:33.824Z,0
2018-09-11T04:55:43.765Z,0
2018-09-11T04:56:52.426Z,0
2018-09-11T04:58:01.861Z,0
2018-09-11T04:59:11.058Z,0
2018-09-11T05:00:20.282Z,0
2018-09-11T05:01:29.736Z,0
2018-09-11T05:02:39.181Z,0
2018-09-11T05:03:48.117Z,0
2018-09-11T05:04:58.124Z,0
2018-09-11T05:06:07.182Z,0
2018-09-11T05:07:16.625Z,0
2018-09-11T05:08:26.053Z,0
2018-09-11T05:09:35.753Z,0
2018-09-11T05:10:45.217Z,0
2018-09-11T05:11:54.650Z,0
2018-09-11T05:13:03.569Z,0
2018-09-11T05:14:13.056Z,0
2018-09-11T05:15:22.586Z,0
2018-09-11T05:16:31.264Z,0
2018-09-11T05:17:40.517Z,0
2018-09-11T05:18:49.691Z,0
2018-09-11T05:19:58.595Z,0
2018-09-11T05:21:07.552Z,0
2018-09-11T05:22:17.511Z,0
2018-09-11T05:23:27.189Z,0
2018-09-11T05:24:36.383Z,0
2018-09-11T05:25:46.059Z,0
2018-09-11T05:26:56.032Z,0
2018-09-11T05:28:05.723Z,0
2018-09-11T05:29:15.160Z,4
2018-09-11T05:30:24.328Z,4
2018-09-11T05:31:33.781Z,4
2018-09-11T05:32:42.941Z,4
2018-09-11T05:33:52.108Z,0
2018-09-11T05:35:01.293Z,4
2018-09-11T05:36:09.946Z,4
2018-09-11T05:37:19.376Z,4
2018-09-11T05:38:29.110Z,4
2018-09-11T05:39:38.048Z,4
2018-09-11T05:40:47.763Z,4
2018-09-11T05:41:57.456Z,4
2018-09-11T05:43:07.137Z,4
2018-09-11T05:44:16.596Z,4
2018-09-11T05:45:26.282Z,4
2018-09-11T05:46:35.761Z,4
2018-09-11T05:47:44.935Z,0
2018-09-11T05:48:53.859Z,0
2018-09-11T05:50:03.813Z,0
2018-09-11T05:51:13.236Z,4
2018-09-11T05:52:22.933Z,0
2018-09-11T05:53:32.666Z,0
2018-09-11T05:54:42.470Z,0
2018-09-11T05:55:52.423Z,0
2018-09-11T05:57:01.341Z,0
2018-09-11T05:58:10.499Z,0
2018-09-11T05:59:19.996Z,0
2018-09-11T06:00:29.416Z,0
2018-09-11T06:01:39.090Z,0
2018-09-11T06:02:48.004Z,0
2018-09-11T06:03:56.954Z,4
2018-09-11T06:05:06.144Z,4
2018-09-11T06:06:15.841Z,4
2018-09-11T06:07:25.031Z,4
2018-09-11T06:08:33.965Z,4
2018-09-11T06:09:43.387Z,4
2018-09-11T06:10:53.326Z,4
2018-09-11T06:12:02.537Z,4
2018-09-11T06:13:11.742Z,4
2018-09-11T06:14:21.172Z,4
2018-09-11T06:15:30.624Z,4
2018-09-11T06:16:40.333Z,4
2018-09-11T06:17:49.767Z,4
2018-09-11T06:18:59.189Z,4
2018-09-11T06:20:08.086Z,4
2018-09-11T06:21:17.278Z,4
2018-09-11T06:22:26.476Z,4
2018-09-11T06:23:36.451Z,4
2018-09-11T06:24:45.918Z,4
2018-09-11T06:25:55.557Z,4
2018-09-11T06:27:04.482Z,4
2018-09-11T06:28:13.656Z,0
2018-09-11T06:29:23.455Z,0
2018-09-11T06:30:33.208Z,4
2018-09-11T06:31:42.625Z,4
2018-09-11T06:32:52.319Z,4
2018-09-11T06:34:01.493Z,4
2018-09-11T06:35:10.722Z,4
2018-09-11T06:36:20.404Z,4
2018-09-11T06:37:30.124Z,4
2018-09-11T06:38:39.080Z,4
2018-09-11T06:39:48.599Z,4
2018-09-11T06:40:58.095Z,4
2018-09-11T06:42:07.833Z,0
2018-09-11T06:43:17.335Z,4
2018-09-11T06:44:26.767Z,4
2018-09-11T06:45:36.710Z,4
2018-09-11T06:46:45.875Z,8
2018-09-11T06:47:55.090Z,8
2018-09-11T06:49:04.524Z,4
2018-09-11T06:50:13.950Z,8
2018-09-11T06:51:23.899Z,8
2018-09-11T06:52:33.337Z,8
2018-09-11T06:53:42.786Z,8
2018-09-11T06:54:52.725Z,8
2018-09-11T06:56:02.230Z,8
2018-09-11T06:57:11.396Z,8
2018-09-11T06:58:20.551Z,8
2018-09-11T06:59:30.257Z,8
2018-09-11T07:00:40.294Z,8
2018-09-11T07:01:49.977Z,8
2018-09-11T07:02:59.669Z,8
2018-09-11T07:04:08.564Z,8
2018-09-11T07:05:18.215Z,8
2018-09-11T07:06:27.417Z,8
2018-09-11T07:07:36.845Z,8
2018-09-11T07:08:46.409Z,12
2018-09-11T07:09:56.132Z,12
2018-09-11T07:11:05.858Z,12
2018-09-11T07:12:15.051Z,12
2018-09-11T07:13:24.467Z,12
2018-09-11T07:14:34.011Z,12
2018-09-11T07:15:43.601Z,12
2018-09-11T07:16:53.083Z,12
2018-09-11T07:18:02.508Z,12
2018-09-11T07:19:11.694Z,16
2018-09-11T07:20:21.829Z,16
2018-09-11T07:21:31.436Z,20
2018-09-11T07:22:40.615Z,20
2018-09-11T07:23:50.370Z,16
2018-09-11T07:24:59.567Z,16
2018-09-11T07:26:09.774Z,12
2018-09-11T07:27:18.689Z,12
2018-09-11T07:28:27.603Z,12
2018-09-11T07:29:37.049Z,12
2018-09-11T07:30:47.057Z,12
2018-09-11T07:31:56.248Z,16
2018-09-11T07:33:05.683Z,20
2018-09-11T07:34:14.857Z,20
2018-09-11T07:35:24.308Z,16
2018-09-11T07:36:34.274Z,20
2018-09-11T07:37:44.093Z,20
2018-09-11T07:38:53.839Z,24
2018-09-11T07:40:03.540Z,28
2018-09-11T07:41:12.970Z,28
2018-09-11T07:42:22.692Z,24
2018-09-11T07:43:31.918Z,20
2018-09-11T07:44:41.091Z,20
2018-09-11T07:45:50.541Z,24
2018-09-11T07:47:00.498Z,20
2018-09-11T07:48:10.206Z,20
2018-09-11T07:49:19.484Z,24
2018-09-11T07:50:28.904Z,20
2018-09-11T07:51:38.844Z,16
2018-09-11T07:52:48.037Z,12
2018-09-11T07:53:57.287Z,8
2018-09-11T07:55:07.843Z,8
2018-09-11T07:56:17.169Z,8
2018-09-11T07:57:27.168Z,16
2018-09-11T07:58:37.110Z,16
2018-09-11T07:59:46.795Z,20
2018-09-11T08:00:56.489Z,24
2018-09-11T08:02:06.149Z,24
2018-09-11T08:03:15.470Z,24
2018-09-11T08:04:24.647Z,20
2018-09-11T08:05:34.074Z,24
2018-09-11T08:06:43.496Z,20
2018-09-11T08:07:53.193Z,20
2018-09-11T08:09:02.394Z,20
2018-09-11T08:10:12.126Z,20
2018-09-11T08:11:21.322Z,24
2018-09-11T08:12:30.551Z,24
2018-09-11T08:13:39.997Z,24
2018-09-11T08:14:49.182Z,24
2018-09-11T08:15:58.609Z,24
2018-09-11T08:17:08.352Z,20
2018-09-11T08:18:17.782Z,24
2018-09-11T08:19:26.992Z,24
2018-09-11T08:20:35.879Z,28
2018-09-11T08:21:45.333Z,28
2018-09-11T08:22:54.313Z,28
2018-09-11T08:24:03.741Z,20
2018-09-11T08:25:13.189Z,24
2018-09-11T08:26:21.860Z,24
2018-09-11T08:27:31.307Z,28
2018-09-11T08:28:41.347Z,24
2018-09-11T08:29:50.543Z,28
2018-09-11T08:30:59.967Z,28
2018-09-11T08:32:08.925Z,24
2018-09-11T08:33:18.390Z,24
2018-09-11T08:34:28.127Z,24
2018-09-11T08:35:37.285Z,28
2018-09-11T08:36:46.750Z,28
2018-09-11T08:37:55.689Z,24
2018-09-11T08:39:04.613Z,24
2018-09-11T08:40:14.284Z,24
2018-09-11T08:41:23.952Z,24
2018-09-11T08:42:33.385Z,28
2018-09-11T08:43:42.804Z,28
2018-09-11T08:44:52.075Z,28
2018-09-11T08:46:01.252Z,28
2018-09-11T08:47:10.684Z,28
2018-09-11T08:48:19.906Z,32
2018-09-11T08:49:29.368Z,32
2018-09-11T08:50:38.553Z,32
2018-09-11T08:51:47.452Z,28
2018-09-11T08:52:57.334Z,32
2018-09-11T08:54:07.029Z,28
2018-09-11T08:55:16.699Z,28
2018-09-11T08:56:25.879Z,28
2018-09-11T08:57:35.084Z,36
2018-09-11T08:58:44.987Z,32
2018-09-11T08:59:54.692Z,32
2018-09-11T09:01:04.123Z,36
2018-09-11T09:02:13.297Z,36
2018-09-11T09:03:22.489Z,32
2018-09-11T09:04:31.712Z,32
2018-09-11T09:05:40.872Z,32
2018-09-11T09:06:50.307Z,32
2018-09-11T09:07:59.747Z,36
2018-09-11T09:09:08.930Z,36
2018-09-11T09:10:19.136Z,36
2018-09-11T09:11:28.828Z,32
2018-09-11T09:12:38.524Z,32
2018-09-11T09:13:47.960Z,36
2018-09-11T09:14:57.628Z,32
2018-09-11T09:16:07.096Z,32
2018-09-11T09:17:16.013Z,32
2018-09-11T09:18:25.330Z,36
2018-09-11T09:19:34.498Z,36
2018-09-11T09:20:43.677Z,36
2018-09-11T09:21:53.406Z,36
2018-09-11T09:23:03.232Z,36
2018-09-11T09:24:12.925Z,36
2018-09-11T09:25:22.351Z,36
2018-09-11T09:26:31.802Z,36
2018-09-11T09:27:42.109Z,36
2018-09-11T09:28:51.265Z,36
2018-09-11T09:30:00.164Z,32
2018-09-11T09:31:09.850Z,36
2018-09-11T09:32:19.152Z,36
2018-09-11T09:33:29.161Z,36
2018-09-11T09:34:39.123Z,36
2018-09-11T09:35:48.825Z,36
2018-09-11T09:36:58.193Z,36
2018-09-11T09:38:07.231Z,36
2018-09-11T09:39:16.714Z,36
2018-09-11T09:40:25.881Z,36
2018-09-11T09:41:35.590Z,36
2018-09-11T09:42:45.277Z,36
2018-09-11T09:43:55.163Z,28
2018-09-11T09:45:04.329Z,36
2018-09-11T09:46:14.132Z,28
2018-09-11T09:47:23.853Z,32
2018-09-11T09:48:33.280Z,32
2018-09-11T09:49:42.709Z,32
2018-09-11T09:50:52.207Z,32
2018-09-11T09:52:01.981Z,32
2018-09-11T09:53:11.686Z,32
2018-09-11T09:54:21.366Z,32
2018-09-11T09:55:31.057Z,32
2018-09-11T09:56:40.477Z,32
2018-09-11T09:57:50.223Z,28
2018-09-11T09:58:59.395Z,32
2018-09-11T10:00:09.401Z,32
2018-09-11T10:01:18.829Z,32
2018-09-11T10:02:28.509Z,32
2018-09-11T10:03:38.197Z,28
2018-09-11T10:04:48.074Z,32
2018-09-11T10:05:57.379Z,32
2018-09-11T10:07:06.532Z,28
2018-09-11T10:08:15.846Z,28
2018-09-11T10:09:25.085Z,28
2018-09-11T10:10:34.251Z,28
2018-09-11T10:11:44.138Z,28
2018-09-11T10:12:53.535Z,28
2018-09-11T10:14:03.621Z,28
2018-09-11T10:15:13.071Z,28
2018-09-11T10:16:22.005Z,28
2018-09-11T10:17:32.137Z,24
2018-09-11T10:18:41.710Z,28
2018-09-11T10:19:50.878Z,24
2018-09-11T10:21:00.515Z,24
2018-09-11T10:22:09.423Z,28
2018-09-11T10:23:19.102Z,28
2018-09-11T10:24:28.076Z,24
2018-09-11T10:25:37.752Z,24
2018-09-11T10:26:47.719Z,24
2018-09-11T10:27:56.892Z,28
2018-09-11T10:29:06.320Z,24
2018-09-11T10:30:15.508Z,28
2018-09-11T10:31:24.173Z,28
2018-09-11T10:32:33.617Z,28
2018-09-11T10:33:42.916Z,28
2018-09-11T10:34:52.159Z,28
2018-09-11T10:36:01.601Z,28
2018-09-11T10:37:11.130Z,28
2018-09-11T10:38:20.292Z,28
2018-09-11T10:39:29.345Z,28
2018-09-11T10:40:38.831Z,28
2018-09-11T10:41:48.256Z,28
2018-09-11T10:42:57.449Z,28
2018-09-11T10:44:06.709Z,24
2018-09-11T10:45:16.134Z,28
2018-09-11T10:46:25.284Z,28
2018-09-11T10:47:34.719Z,28
2018-09-11T10:48:44.214Z,28
2018-09-11T10:49:54.020Z,28
2018-09-11T10:51:03.205Z,28
2018-09-11T10:52:12.893Z,28
2018-09-11T10:53:22.833Z,24
2018-09-11T10:54:31.984Z,28
2018-09-11T10:55:41.145Z,24
2018-09-11T10:56:50.312Z,24
2018-09-11T10:57:59.480Z,24
2018-09-11T10:59:09.197Z,24
2018-09-11T11:00:19.334Z,24
2018-09-11T11:01:28.568Z,24
2018-09-11T11:02:37.487Z,28
2018-09-11T11:03:47.416Z,24
2018-09-11T11:04:56.882Z,24
2018-09-11T11:06:06.072Z,24
2018-09-11T11:07:15.811Z,24
2018-09-11T11:08:24.969Z,24
2018-09-11T11:09:34.156Z,20
2018-09-11T11:10:44.089Z,24
2018-09-11T11:11:53.846Z,24
2018-09-11T11:13:03.272Z,24
2018-09-11T11:14:12.960Z,20
2018-09-11T11:15:22.384Z,24
2018-09-11T11:16:32.072Z,24
2018-09-11T11:17:41.746Z,20
2018-09-11T11:18:50.904Z,20
2018-09-11T11:20:00.133Z,20
2018-09-11T11:21:09.069Z,20
2018-09-11T11:22:18.763Z,20
2018-09-11T11:23:27.928Z,24
2018-09-11T11:24:37.631Z,20
2018-09-11T11:25:47.074Z,20
2018-09-11T11:26:56.291Z,20
2018-09-11T11:28:06.108Z,20
2018-09-11T11:29:15.850Z,20
2018-09-11T11:30:25.574Z,16
2018-09-11T11:31:34.994Z,20
2018-09-11T11:32:44.411Z,16
2018-09-11T11:33:53.819Z,20
2018-09-11T11:35:02.980Z,20
2018-09-11T11:36:13.166Z,16
2018-09-11T11:37:23.460Z,16
2018-09-11T11:38:33.905Z,20
2018-09-11T11:39:43.354Z,20
2018-09-11T11:40:52.561Z,20
2018-09-11T11:42:02.397Z,20
2018-09-11T11:43:11.836Z,24
2018-09-11T11:44:21.247Z,24
2018-09-11T11:45:30.673Z,24
2018-09-11T11:46:40.409Z,24
2018-09-11T11:47:49.883Z,24
2018-09-11T11:48:59.100Z,24
2018-09-11T11:50:08.795Z,20
2018-09-11T11:51:18.227Z,24
2018-09-11T11:52:27.653Z,20
2018-09-11T11:53:37.080Z,24
2018-09-11T11:54:46.414Z,28
2018-09-11T11:55:55.605Z,24
2018-09-11T11:57:05.049Z,24
2018-09-11T11:58:14.220Z,24
2018-09-11T11:59:23.650Z,24
2018-09-11T12:00:33.371Z,24
2018-09-11T12:01:43.667Z,24
2018-09-11T12:02:53.403Z,24
2018-09-11T12:04:02.831Z,28
2018-09-11T12:05:12.306Z,28
2018-09-11T12:06:22.009Z,28
2018-09-11T12:07:31.958Z,28
2018-09-11T12:08:41.638Z,28
2018-09-11T12:09:51.338Z,24
2018-09-11T12:11:01.028Z,24
2018-09-11T12:12:10.447Z,28
2018-09-11T12:13:20.127Z,32
2018-09-11T12:14:29.854Z,28
2018-09-11T12:15:39.277Z,28
2018-09-11T12:16:48.792Z,32
2018-09-11T12:17:58.605Z,32
2018-09-11T12:19:08.567Z,28
2018-09-11T12:20:17.834Z,32
2018-09-11T12:21:27.270Z,32
2018-09-11T12:22:36.446Z,32
2018-09-11T12:23:45.619Z,32
2018-09-11T12:24:54.785Z,32
2018-09-11T12:26:03.938Z,36
2018-09-11T12:27:13.394Z,32
2018-09-11T12:28:22.610Z,36
2018-09-11T12:29:31.299Z,32
2018-09-11T12:30:40.450Z,36
2018-09-11T12:31:49.886Z,36
2018-09-11T12:32:59.048Z,32
2018-09-11T12:34:08.740Z,32
2018-09-11T12:35:18.617Z,36
2018-09-11T12:36:27.515Z,36
2018-09-11T12:37:37.443Z,36
2018-09-11T12:38:47.219Z,40
2018-09-11T12:39:56.644Z,32
2018-09-11T12:41:05.812Z,40
2018-09-11T12:42:14.988Z,40
2018-09-11T12:43:24.279Z,36
2018-09-11T12:44:33.427Z,36
2018-09-11T12:45:43.412Z,36
2018-09-11T12:46:54.641Z,40
2018-09-11T12:48:06.076Z,44
2018-09-11T12:49:15.998Z,40
2018-09-11T12:50:25.464Z,44
2018-09-11T12:51:35.157Z,40
2018-09-11T12:52:44.958Z,48
2018-09-11T12:53:54.400Z,52
2018-09-11T12:55:04.093Z,52
2018-09-11T12:56:13.297Z,48
2018-09-11T12:57:22.756Z,52
2018-09-11T12:58:31.704Z,52
2018-09-11T12:59:40.912Z,52
2018-09-11T13:00:50.665Z,52
2018-09-11T13:02:00.116Z,52
2018-09-11T13:03:09.311Z,56
2018-09-11T13:04:19.023Z,56
2018-09-11T13:05:28.224Z,56
2018-09-11T13:06:37.471Z,56
2018-09-11T13:07:46.986Z,60
2018-09-11T13:08:56.549Z,56
2018-09-11T13:10:06.068Z,56
2018-09-11T13:11:16.086Z,60
2018-09-11T13:12:25.874Z,60
2018-09-11T13:13:35.438Z,60
2018-09-11T13:14:44.957Z,60
2018-09-11T13:15:54.565Z,64
2018-09-11T13:17:04.296Z,64
2018-09-11T13:18:13.764Z,64
2018-09-11T13:19:23.246Z,60
2018-09-11T13:20:33.301Z,64
2018-09-11T13:21:43.051Z,60
2018-09-11T13:22:52.308Z,64
2018-09-11T13:24:01.783Z,72
2018-09-11T13:25:11.301Z,68
2018-09-11T13:26:21.233Z,68
2018-09-11T13:27:30.986Z,72
2018-09-11T13:28:40.961Z,72
2018-09-11T13:29:50.951Z,72
2018-09-11T13:31:00.410Z,76
2018-09-11T13:32:09.915Z,76
2018-09-11T13:33:19.930Z,80
2018-09-11T13:34:28.906Z,80
2018-09-11T13:35:38.392Z,80
2018-09-11T13:36:48.413Z,80
2018-09-11T13:37:57.356Z,84
2018-09-11T13:39:06.270Z,80
2018-09-11T13:40:15.954Z,84
2018-09-11T13:41:25.419Z,84
2018-09-11T13:42:34.680Z,84
2018-09-11T13:43:44.668Z,84
2018-09-11T13:44:53.902Z,84
2018-09-11T13:46:03.447Z,88
2018-09-11T13:47:13.458Z,88
2018-09-11T13:48:23.028Z,84
2018-09-11T13:49:32.247Z,84
2018-09-11T13:50:41.531Z,88
2018-09-11T13:51:50.768Z,88
2018-09-11T13:53:00.819Z,88
2018-09-11T13:54:10.464Z,84
2018-09-11T13:55:19.677Z,84
2018-09-11T13:56:28.937Z,84
2018-09-11T13:57:38.733Z,88
2018-09-11T13:58:47.942Z,92
2018-09-11T13:59:57.434Z,88
2018-09-11T14:01:07.218Z,88
2018-09-11T14:02:16.997Z,84
2018-09-11T14:03:26.450Z,84
2018-09-11T14:04:35.929Z,84
2018-09-11T14:05:45.710Z,84
2018-09-11T14:06:55.490Z,88
2018-09-11T14:08:05.697Z,80
2018-09-11T14:09:14.919Z,84
2018-09-11T14:10:23.893Z,92
2018-09-11T14:11:33.103Z,84
2018-09-11T14:12:42.575Z,88
2018-09-11T14:13:52.628Z,84
2018-09-11T14:15:01.880Z,96
2018-09-11T14:16:11.398Z,88
2018-09-11T14:17:20.602Z,76
2018-09-11T14:18:30.502Z,84
2018-09-11T14:19:40.265Z,80
2018-09-11T14:20:49.461Z,72
2018-09-11T14:21:59.171Z,64
2018-09-11T14:23:08.442Z,52
2018-09-11T14:24:17.889Z,40
2018-09-11T14:25:27.545Z,28
2018-09-11T14:26:37.118Z,20
2018-09-11T14:27:46.719Z,12
2018-09-11T14:28:55.903Z,8
2018-09-11T14:30:05.387Z,8
2018-09-11T14:31:15.115Z,8
2018-09-11T14:32:24.879Z,8
2018-09-11T14:33:34.142Z,8
2018-09-11T14:34:43.510Z,8
2018-09-11T14:35:52.451Z,8
2018-09-11T14:37:01.625Z,8
2018-09-11T14:38:10.825Z,8
2018-09-11T14:39:20.040Z,8
2018-09-11T14:40:29.527Z,8
2018-09-11T14:41:39.072Z,8
2018-09-11T14:42:48.554Z,8
2018-09-11T14:43:57.789Z,8
2018-09-11T14:45:06.780Z,4
2018-09-11T14:46:16.288Z,8
2018-09-11T14:47:25.768Z,8
2018-09-11T14:48:35.282Z,8
2018-09-11T14:49:44.767Z,8
2018-09-11T14:50:54.323Z,4
2018-09-11T14:52:03.315Z,4
2018-09-11T14:53:12.766Z,4
2018-09-11T14:54:21.982Z,4
2018-09-11T14:55:31.470Z,4
2018-09-11T14:56:40.703Z,4
2018-09-11T14:57:50.742Z,8
2018-09-11T14:59:00.518Z,8
2018-09-11T15:00:10.359Z,8
2018-09-11T15:01:20.375Z,8
2018-09-11T15:02:30.050Z,8
2018-09-11T15:03:39.327Z,4
2018-09-11T15:04:49.276Z,4
2018-09-11T15:05:58.750Z,4
2018-09-11T15:07:07.958Z,4
2018-09-11T15:08:17.799Z,4
2018-09-11T15:09:27.096Z,4
2018-09-11T15:10:36.568Z,8
2018-09-11T15:11:45.785Z,4
2018-09-11T15:12:55.845Z,4
2018-09-11T15:14:05.594Z,4
2018-09-11T15:15:15.405Z,4
2018-09-11T15:16:25.181Z,4
2018-09-11T15:17:35.148Z,4
2018-09-11T15:18:44.590Z,4
2018-09-11T15:19:53.757Z,4
2018-09-11T15:21:02.724Z,4
2018-09-11T15:22:12.302Z,4
2018-09-11T15:23:21.818Z,8
2018-09-11T15:24:31.548Z,8
2018-09-11T15:25:40.757Z,8
2018-09-11T15:26:49.746Z,8
2018-09-11T15:27:59.440Z,4
2018-09-11T15:29:08.750Z,4
2018-09-11T15:30:18.373Z,4
2018-09-11T15:31:27.577Z,4
2018-09-11T15:32:36.834Z,4
2018-09-11T15:33:46.340Z,4
2018-09-11T15:34:55.353Z,4
2018-09-11T15:36:05.115Z,4
2018-09-11T15:37:14.399Z,4
2018-09-11T15:38:24.151Z,4
2018-09-11T15:39:33.548Z,4
2018-09-11T15:40:42.528Z,4
2018-09-11T15:41:52.299Z,4
2018-09-11T15:43:02.132Z,4
2018-09-11T15:44:11.876Z,4
2018-09-11T15:45:21.121Z,4
2018-09-11T15:46:30.876Z,4
2018-09-11T15:47:40.106Z,4
2018-09-11T15:48:50.120Z,4
2018-09-11T15:49:59.946Z,4
2018-09-11T15:51:09.212Z,4
2018-09-11T15:52:18.466Z,4
2018-09-11T15:53:27.987Z,4
2018-09-11T15:54:36.983Z,4
2018-09-11T15:55:46.576Z,4
2018-09-11T15:56:56.137Z,4
2018-09-11T15:58:06.132Z,0
2018-09-11T15:59:15.642Z,4
2018-09-11T16:00:25.084Z,4
2018-09-11T16:01:33.789Z,4
2018-09-11T16:02:43.524Z,4
2018-09-11T16:03:52.724Z,4
2018-09-11T16:05:02.222Z,4
2018-09-11T16:06:11.996Z,4
2018-09-11T16:07:21.732Z,4
2018-09-11T16:08:31.737Z,4
2018-09-11T16:09:41.761Z,4
2018-09-11T16:10:51.214Z,4
2018-09-11T16:12:00.453Z,4
2018-09-11T16:13:09.906Z,4
2018-09-11T16:14:19.675Z,4
2018-09-11T16:15:29.140Z,4
2018-09-11T16:16:38.921Z,4
2018-09-11T16:17:48.138Z,4
2018-09-11T16:18:57.365Z,4
2018-09-11T16:20:06.584Z,4
2018-09-11T16:21:16.432Z,4
2018-09-11T16:22:25.636Z,4
2018-09-11T16:23:35.176Z,4
2018-09-11T16:24:44.622Z,4
2018-09-11T16:25:53.608Z,4
2018-09-11T16:27:03.351Z,4
2018-09-11T16:28:12.815Z,4
2018-09-11T16:29:22.037Z,4
2018-09-11T16:30:31.281Z,4
2018-09-11T16:31:41.335Z,4
2018-09-11T16:32:50.858Z,4
2018-09-11T16:34:00.021Z,4
2018-09-11T16:35:09.270Z,4
2018-09-11T16:36:18.788Z,4
2018-09-11T16:37:27.972Z,4
2018-09-11T16:38:37.963Z,0
2018-09-11T16:39:47.683Z,0
2018-09-11T16:40:57.152Z,0
2018-09-11T16:42:06.325Z,0
2018-09-11T16:43:16.236Z,0
2018-09-11T16:44:25.180Z,0
2018-09-11T16:45:34.129Z,0
2018-09-11T16:46:44.397Z,0
2018-09-11T16:47:54.351Z,0
2018-09-11T16:49:03.572Z,0
2018-09-11T16:50:12.494Z,0
2018-09-11T16:51:21.754Z,0